Time;durP1;ratioP1;P1;durP2;ratioP2;P2;SDS_P1;SDS_P2;PMS_P1;PMS_P2;Temp;Humidity;BMP_temperature;BMP_pressure;BME280_temperature;BME280_humidity;BME280_pressure;Samples;Min_cycle;Max_cycle;Signal;HPM_P1;HPM_P2
2023/02/16 00:01:26;;;;;;;23.98;16.17;;;;;;;8.13;55.06;101120.91;4994889;28;20054;-61
2023/02/16 00:03:55;;;;;;;24.15;17.92;;;;;;;8.10;55.40;101127.00;4991888;28;20053;-61
2023/02/16 00:06:24;;;;;;;25.38;16.75;;;;;;;8.06;55.91;101126.75;4995001;28;20511;-61
2023/02/16 00:08:53;;;;;;;24.13;17.45;;;;;;;8.01;55.46;101129.53;4991739;28;20530;-61
2023/02/16 00:14:13;;;;;;;23.17;16.73;;;;;;;7.94;56.16;101137.31;4995477;28;20502;-61
2023/02/16 00:16:41;;;;;;;22.23;16.23;;;;;;;7.89;56.63;101132.59;4994457;28;20412;-61
2023/02/16 00:19:20;;;;;;;21.77;15.70;;;;;;;7.85;56.31;101125.97;4993667;28;20487;-60
2023/02/16 00:21:50;;;;;;;23.63;17.10;;;;;;;7.79;56.49;101120.69;4992967;28;20414;-62
2023/02/16 00:24:17;;;;;;;;;;;;;;;7.71;55.98;101119.31;4993450;28;20050;-61
2023/02/16 00:26:45;;;;;;;25.15;16.92;;;;;;;7.65;56.71;101121.25;4992073;28;19928;-61
2023/02/16 00:29:19;;;;;;;24.08;17.35;;;;;;;7.57;56.69;101123.78;4994288;28;20050;-60
2023/02/16 00:31:46;;;;;;;23.75;16.55;;;;;;;7.46;56.80;101121.00;4994291;28;20081;-61
2023/02/16 00:34:32;;;;;;;23.70;17.38;;;;;;;7.33;56.72;101124.34;4994109;28;20057;-60
2023/02/16 00:37:03;;;;;;;20.98;15.20;;;;;;;7.28;56.36;101122.38;4989874;28;20061;-60
2023/02/16 00:39:30;;;;;;;24.33;17.27;;;;;;;7.18;56.88;101121.53;4991895;28;20050;-61
2023/02/16 00:42:01;;;;;;;24.73;16.70;;;;;;;7.13;57.41;101118.78;4993375;28;20065;-60
2023/02/16 00:44:35;;;;;;;22.92;16.20;;;;;;;7.02;57.19;101120.69;4995050;28;20134;-61
2023/02/16 00:47:20;;;;;;;22.45;16.33;;;;;;;6.93;57.32;101112.09;4992599;28;20042;-61
2023/02/16 00:49:48;;;;;;;22.70;16.20;;;;;;;6.80;57.31;101116.22;4994160;28;20483;-60
2023/02/16 00:52:29;;;;;;;23.70;16.63;;;;;;;6.72;57.68;101114.00;4993636;28;20069;-61
2023/02/16 00:54:58;;;;;;;22.95;16.52;;;;;;;6.61;57.72;101115.88;4994071;28;20511;-61
2023/02/16 00:57:27;;;;;;;22.65;15.95;;;;;;;6.55;57.81;101118.91;4992856;28;20427;-61
2023/02/16 01:00:00;;;;;;;23.60;16.50;;;;;;;6.49;58.20;101109.78;4994699;28;20054;-61
2023/02/16 01:02:28;;;;;;;20.70;15.00;;;;;;;6.36;58.33;101102.78;4992544;28;20493;-62
2023/02/16 01:04:55;;;;;;;24.75;17.00;;;;;;;6.34;58.55;101110.56;4994742;28;20054;-61
2023/02/16 01:12:54;;;;;;;24.10;16.58;;;;;;;6.40;59.43;101094.78;4997649;28;20081;-61
2023/02/16 01:15:25;;;;;;;26.35;19.02;;;;;;;6.42;59.81;101095.34;4993056;28;20065;-60
2023/02/16 01:17:52;;;;;;;27.05;18.10;;;;;;;6.42;59.77;101093.41;4994394;28;20487;-61
2023/02/16 01:20:25;;;;;;;24.48;17.67;;;;;;;6.49;59.79;101098.72;4993877;28;20065;-61
2023/02/16 01:22:54;;;;;;;23.00;17.05;;;;;;;6.52;59.87;101100.09;4992266;28;20073;-61
2023/02/16 01:25:24;;;;;;;23.80;16.85;;;;;;;6.52;59.79;101094.56;4984955;28;20046;-61
2023/02/16 01:27:54;;;;;;;24.23;16.17;;;;;;;6.61;59.90;101102.03;4991720;28;20491;-61
2023/02/16 01:30:23;;;;;;;25.38;17.80;;;;;;;6.66;59.93;101106.78;4979191;28;20050;-61
2023/02/16 01:32:54;;;;;;;24.23;16.65;;;;;;;6.65;59.42;101103.16;4994167;28;20073;-61
2023/02/16 01:35:23;;;;;;;22.95;16.35;;;;;;;6.55;59.23;101100.38;4993682;28;20517;-61
2023/02/16 01:37:51;;;;;;;23.15;16.90;;;;;;;6.55;59.23;101103.16;4992355;28;20061;-61
2023/02/16 01:40:36;;;;;;;25.15;18.20;;;;;;;6.57;59.71;101095.38;4993773;28;20058;-61
2023/02/16 01:43:09;;;;;;;23.90;17.02;;;;;;;6.56;59.12;101090.16;4993875;28;20058;-61
2023/02/16 01:45:41;;;;;;;26.45;18.52;;;;;;;6.53;59.58;101088.75;4994075;28;20058;-60
2023/02/16 01:48:21;;;;;;;28.17;18.63;;;;;;;6.60;59.44;101083.78;4993691;28;20059;-60
2023/02/16 01:50:54;;;;;;;25.70;17.65;;;;;;;6.62;59.25;101083.53;4993947;28;20058;-62
2023/02/16 01:53:29;;;;;;;24.52;16.75;;;;;;;6.65;59.72;101088.50;4992025;28;20054;-60
2023/02/16 01:56:02;;;;;;;28.77;18.52;;;;;;;6.69;59.66;101086.84;4993960;28;20057;-60
2023/02/16 01:58:37;;;;;;;25.08;17.48;;;;;;;6.72;59.61;101080.78;4993914;28;20050;-61
2023/02/16 02:01:36;;;;;;;26.77;18.30;;;;;;;6.80;59.70;101087.69;4993633;28;20065;-61
2023/02/16 02:06:56;;;;;;;23.92;17.00;;;;;;;6.83;59.31;101074.13;4998582;28;20089;-61
2023/02/16 02:09:30;;;;;;;24.40;17.23;;;;;;;6.90;58.96;101076.63;4992944;28;20057;-61
2023/02/16 02:12:06;;;;;;;25.50;18.15;;;;;;;6.95;59.00;101086.88;4993573;28;20054;-61
2023/02/16 02:14:38;;;;;;;27.20;17.45;;;;;;;6.88;58.93;101068.59;4993550;28;20410;-61
2023/02/16 02:17:08;;;;;;;24.27;17.13;;;;;;;6.80;59.00;101080.22;4993879;28;20050;-61
2023/02/16 02:19:48;;;;;;;26.60;18.17;;;;;;;6.66;58.66;101087.41;4993856;28;20061;-61
2023/02/16 02:25:45;;;;;;;25.90;17.63;;;;;;;6.45;59.18;101076.28;5014959;28;19928;-61
2023/02/16 02:28:23;;;;;;;25.33;17.35;;;;;;;6.42;58.91;101078.75;5013030;28;20479;-61
2023/02/16 02:30:55;;;;;;;25.92;17.35;;;;;;;6.34;58.90;101073.72;5012556;28;20056;-61
2023/02/16 02:33:42;;;;;;;27.70;18.05;;;;;;;6.25;59.17;101071.47;5012841;28;20061;-61
2023/02/16 02:36:22;;;;;;;28.40;18.35;;;;;;;6.17;59.49;101079.47;5012849;28;20057;-60
2023/02/16 02:38:57;;;;;;;;;;;;;;;6.07;59.20;101072.81;4993583;28;20415;-61
2023/02/16 02:42:02;;;;;;;24.55;17.08;;;;;;;5.95;59.36;101069.44;4993223;28;19945;-61
2023/02/16 02:44:25;;;;;;;25.88;16.70;;;;;;;5.81;60.00;101076.50;4993230;28;20054;-61
2023/02/16 02:46:53;;;;;;;23.13;16.92;;;;;;;5.75;59.45;101072.88;4991823;28;20061;-61
2023/02/16 02:49:20;;;;;;;24.27;17.40;;;;;;;5.69;59.75;101063.72;4993479;28;20054;-61
2023/02/16 02:51:49;;;;;;;25.10;17.52;;;;;;;5.64;59.70;101077.50;4992903;28;20066;-61
2023/02/16 03:02:58;;;;;;;22.77;15.57;;;;;;;5.43;59.80;101059.13;5002539;28;20061;-60
2023/02/16 03:05:30;;;;;;;28.60;17.92;;;;;;;5.48;60.97;101059.16;4997102;28;20054;-60
2023/02/16 03:08:05;;;;;;;27.63;17.13;;;;;;;5.62;61.97;101052.06;4995228;28;20054;-61
2023/02/16 03:13:28;;;;;;;26.95;18.15;;;;;;;5.76;61.08;101051.59;5001521;28;20073;-61
2023/02/16 03:15:59;;;;;;;21.67;16.42;;;;;;;5.72;61.25;101050.47;4996461;28;20062;-61
2023/02/16 03:29:35;;;;;;;27.27;17.73;;;;;;;5.58;60.90;101050.94;4998219;28;20061;-61
2023/02/16 03:32:04;;;;;;;24.40;17.23;;;;;;;5.63;61.00;101048.22;4995784;28;20057;-61
2023/02/16 03:34:32;;;;;;;28.07;17.40;;;;;;;5.62;60.79;101046.53;4996770;28;20065;-61
2023/02/16 03:37:00;;;;;;;25.70;17.83;;;;;;;5.66;60.94;101046.84;4995476;28;21036;-61
2023/02/16 03:39:28;;;;;;;25.40;17.75;;;;;;;5.66;61.61;101047.66;4996267;28;20058;-61
2023/02/16 03:41:57;;;;;;;28.27;18.67;;;;;;;5.69;61.24;101036.09;4996744;28;20141;-61
2023/02/16 03:44:24;;;;;;;27.15;16.65;;;;;;;5.73;61.53;101033.59;4996515;28;20475;-61
2023/02/16 03:46:52;;;;;;;23.38;16.45;;;;;;;5.75;61.17;101036.94;4996350;28;20388;-61
2023/02/16 03:49:21;;;;;;;27.17;17.92;;;;;;;5.75;61.43;101031.41;4996526;28;20050;-61
2023/02/16 03:51:48;;;;;;;27.63;17.97;;;;;;;5.76;61.72;101023.97;4995937;28;20384;-61
2023/02/16 03:54:15;;;;;;;23.45;16.30;;;;;;;5.78;60.99;101019.81;4994480;28;20054;-61
2023/02/16 03:56:42;;;;;;;24.80;17.50;;;;;;;5.83;61.42;101019.00;4996272;28;20054;-61
2023/02/16 03:59:10;;;;;;;25.83;17.55;;;;;;;5.92;60.59;101013.78;4996264;28;20504;-61
2023/02/16 04:01:40;;;;;;;26.88;17.77;;;;;;;5.97;60.81;101016.63;4995550;28;20054;-61
2023/02/16 04:04:07;;;;;;;25.25;17.45;;;;;;;5.96;60.57;101026.00;4995808;28;20061;-61
2023/02/16 04:06:38;;;;;;;26.42;16.85;;;;;;;5.91;60.12;101029.56;4996189;28;20065;-61
2023/02/16 04:09:05;;;;;;;23.13;16.45;;;;;;;5.80;60.42;101027.84;4994595;28;20059;-61
2023/02/16 04:14:19;;;;;;;25.67;17.33;;;;;;;5.66;60.35;101033.03;4997707;28;20146;-61
2023/02/16 04:16:46;;;;;;;24.65;16.85;;;;;;;5.77;60.57;101020.91;4995857;28;20058;-61
2023/02/16 04:19:13;;;;;;;25.13;16.85;;;;;;;5.80;60.59;101025.09;4995854;28;20388;-61
2023/02/16 04:21:44;;;;;;;24.50;18.10;;;;;;;5.88;60.80;101027.34;4995341;28;20061;-61
2023/02/16 04:24:11;;;;;;;27.05;17.85;;;;;;;5.92;60.54;101024.84;4994379;28;20054;-62
2023/02/16 04:26:44;;;;;;;25.27;16.90;;;;;;;5.94;60.45;101034.53;4995309;28;20058;-61
2023/02/16 04:29:11;;;;;;;24.98;16.55;;;;;;;6.02;60.13;101033.22;4995780;28;20058;-61
2023/02/16 04:31:38;;;;;;;24.25;18.55;;;;;;;6.05;60.20;101032.69;4995629;28;20053;-61
2023/02/16 04:34:06;;;;;;;24.92;16.98;;;;;;;6.08;59.95;101041.28;4995527;28;20054;-60
2023/02/16 04:36:34;;;;;;;22.55;16.13;;;;;;;6.11;60.05;101042.69;4995414;28;20403;-61
2023/02/16 04:39:03;;;;;;;26.83;18.70;;;;;;;6.15;59.80;101045.72;4993667;28;20054;-61
2023/02/16 04:41:30;;;;;;;27.58;19.23;;;;;;;6.15;59.93;101035.47;4994965;28;20112;-62
2023/02/16 04:43:57;;;;;;;27.95;19.27;;;;;;;6.17;59.62;101037.97;4995149;28;20054;-61
2023/02/16 04:46:24;;;;;;;27.23;17.75;;;;;;;6.22;60.52;101026.94;4995200;28;20054;-61
2023/02/16 04:48:52;;;;;;;25.10;17.67;;;;;;;6.23;60.25;101028.59;4990528;28;20046;-61
2023/02/16 04:51:19;;;;;;;25.27;17.40;;;;;;;6.23;59.78;101025.84;4994995;28;20046;-61
2023/02/16 04:53:46;;;;;;;25.52;17.52;;;;;;;6.28;59.52;101021.16;4993266;28;20062;-62
2023/02/16 04:56:15;;;;;;;25.02;17.13;;;;;;;6.31;59.36;101019.78;4992476;28;20058;-61
2023/02/16 04:58:43;;;;;;;25.55;17.80;;;;;;;6.32;59.70;101015.06;4992644;28;20046;-61
2023/02/16 05:01:18;;;;;;;28.88;17.95;;;;;;;6.37;59.62;101013.16;4994589;28;20057;-62
2023/02/16 05:03:45;;;;;;;25.00;17.70;;;;;;;6.42;59.46;101010.38;4994907;28;20468;-61
2023/02/16 05:06:12;;;;;;;26.08;16.98;;;;;;;6.42;59.11;101010.38;4994724;28;20057;-61
2023/02/16 05:08:40;;;;;;;26.48;17.85;;;;;;;6.40;59.57;101018.13;4992292;28;20042;-61
2023/02/16 05:16:38;;;;;;;24.77;16.90;;;;;;;6.62;58.67;101017.09;4984503;28;20514;-61
2023/02/16 05:19:05;;;;;;;25.50;17.45;;;;;;;6.65;58.50;101016.53;4993664;28;20050;-62
2023/02/16 05:21:34;;;;;;;25.42;18.05;;;;;;;6.69;58.61;101009.34;4993159;28;20081;-60
2023/02/16 05:24:03;;;;;;;25.70;16.95;;;;;;;6.69;58.34;101009.34;4992129;28;20050;-62
2023/02/16 05:26:31;;;;;;;27.45;18.17;;;;;;;6.67;58.47;101004.06;4991711;28;20057;-61
2023/02/16 05:29:00;;;;;;;26.55;17.85;;;;;;;6.71;58.46;101012.66;4989021;28;20050;-61
2023/02/16 05:31:28;;;;;;;28.67;19.33;;;;;;;6.73;58.18;101015.97;4982803;28;20065;-61
2023/02/16 05:33:55;;;;;;;25.98;18.92;;;;;;;6.73;58.34;101020.69;4991417;28;20161;-61
2023/02/16 05:36:23;;;;;;;28.13;18.98;;;;;;;6.72;58.27;101017.09;4993348;28;20502;-61
2023/02/16 05:38:50;;;;;;;23.95;17.15;;;;;;;6.75;58.03;101012.94;4992312;28;20065;-61
2023/02/16 05:41:23;;;;;;;26.73;18.92;;;;;;;6.68;57.92;101013.22;4992415;28;20062;-61
2023/02/16 05:43:52;;;;;;;26.13;17.17;;;;;;;6.68;58.18;101018.75;4991881;28;20050;-60
2023/02/16 05:46:21;;;;;;;25.03;17.93;;;;;;;6.63;58.31;101033.41;4991721;28;20061;-61
2023/02/16 05:48:49;;;;;;;23.38;18.08;;;;;;;6.57;58.18;101030.91;4991784;28;20803;-61
2023/02/16 05:51:16;;;;;;;29.48;18.88;;;;;;;6.59;58.37;101029.50;4992568;28;20054;-61
2023/02/16 05:53:43;;;;;;;27.17;17.27;;;;;;;6.58;58.13;101029.81;4988599;28;20050;-60
2023/02/16 05:56:11;;;;;;;28.52;17.90;;;;;;;6.43;58.12;101023.13;4997362;28;20406;-62
2023/02/16 05:58:39;;;;;;;23.67;17.00;;;;;;;6.41;58.00;101025.34;4994149;28;20461;-60
2023/02/16 06:01:06;;;;;;;30.50;19.20;;;;;;;6.37;58.10;101028.94;4994031;28;20054;-60
2023/02/16 06:03:35;;;;;;;29.20;18.92;;;;;;;6.34;58.38;101035.84;4993569;28;20065;-60
2023/02/16 06:06:03;;;;;;;25.67;18.30;;;;;;;6.32;58.33;101032.53;4991754;28;20053;-60
2023/02/16 06:08:32;;;;;;;25.48;17.45;;;;;;;6.27;58.49;101026.97;4990823;28;20047;-60
2023/02/16 06:10:59;;;;;;;26.10;18.02;;;;;;;6.24;58.27;101025.56;4993141;28;20054;-60
2023/02/16 06:13:27;;;;;;;28.23;18.67;;;;;;;6.19;58.07;101014.47;4992550;28;20062;-61
2023/02/16 06:15:56;;;;;;;28.60;19.35;;;;;;;6.16;59.04;101022.50;4991061;28;20046;-60
2023/02/16 06:18:24;;;;;;;28.60;19.48;;;;;;;6.10;58.34;101028.00;4993188;28;20053;-61
2023/02/16 06:20:52;;;;;;;28.77;19.15;;;;;;;6.11;59.11;101026.09;4993332;28;20495;-60
2023/02/16 06:23:19;;;;;;;24.90;18.48;;;;;;;6.10;59.18;101025.22;5000307;28;20406;-61
2023/02/16 06:25:50;;;;;;;29.70;19.02;;;;;;;6.08;58.85;101030.22;4994001;28;20054;-60
2023/02/16 06:28:17;;;;;;;26.75;18.40;;;;;;;6.14;59.61;101031.06;4992039;28;20042;-60
2023/02/16 06:30:44;;;;;;;29.42;18.55;;;;;;;6.16;59.13;101041.88;4991084;28;20050;-61
2023/02/16 06:33:12;;;;;;;27.55;19.45;;;;;;;6.14;59.13;101030.25;4989673;28;20054;-61
2023/02/16 06:35:39;;;;;;;27.50;18.55;;;;;;;6.08;59.42;101032.16;4991406;28;20503;-61
2023/02/16 06:38:07;;;;;;;26.50;18.73;;;;;;;6.13;59.11;101029.38;4991289;28;20050;-61
2023/02/16 06:40:35;;;;;;;29.88;18.05;;;;;;;6.14;58.96;101033.84;4989800;28;20160;-61
2023/02/16 06:43:02;;;;;;;25.23;18.27;;;;;;;6.20;59.39;101034.69;4990669;28;20082;-61
2023/02/16 06:45:29;;;;;;;24.95;17.85;;;;;;;6.24;58.96;101030.28;4979994;28;20058;-61
2023/02/16 06:47:56;;;;;;;28.70;18.88;;;;;;;6.23;58.94;101032.19;4990448;28;20054;-60
2023/02/16 06:50:23;;;;;;;27.63;18.63;;;;;;;6.27;58.35;101026.97;4990357;28;20050;-60
2023/02/16 06:52:51;;;;;;;25.05;17.52;;;;;;;6.30;58.43;101027.25;4990641;28;20058;-61
2023/02/16 06:55:19;;;;;;;26.33;18.23;;;;;;;6.29;58.25;101024.75;4991920;28;20533;-61
2023/02/16 06:57:47;;;;;;;25.52;17.10;;;;;;;6.36;58.35;101039.16;4990827;28;20406;-61
2023/02/16 07:00:15;;;;;;;26.20;18.23;;;;;;;6.40;58.43;101036.66;4991040;28;20126;-61
2023/02/16 07:02:43;;;;;;;27.05;18.58;;;;;;;6.52;58.14;101031.72;4991167;28;20061;-61
2023/02/16 07:05:10;;;;;;;26.88;17.83;;;;;;;6.64;57.98;101031.47;4990105;28;20070;-61
2023/02/16 07:07:37;;;;;;;29.77;18.40;;;;;;;6.77;57.61;101036.47;4975134;28;20502;-61
2023/02/16 07:10:06;;;;;;;27.70;18.42;;;;;;;7.04;57.73;101027.09;4985324;28;20499;-60
2023/02/16 07:12:35;;;;;;;25.45;17.42;;;;;;;7.51;56.98;101028.69;4988060;28;20057;-61
2023/02/16 07:15:02;;;;;;;24.98;17.40;;;;;;;8.22;55.27;101024.84;4990774;28;20414;-61
2023/02/16 07:17:29;;;;;;;22.92;16.45;;;;;;;8.74;53.97;101030.97;4992418;28;20058;-61
2023/02/16 07:19:56;;;;;;;24.52;16.33;;;;;;;9.18;53.44;101034.78;4992357;28;20050;-60
2023/02/16 07:22:24;;;;;;;24.50;17.23;;;;;;;9.90;51.52;101032.09;4990386;28;20499;-60
2023/02/16 07:24:51;;;;;;;21.92;17.25;;;;;;;11.02;48.59;101026.13;4991296;28;20061;-61
2023/02/16 07:27:18;;;;;;;27.80;18.23;;;;;;;11.74;46.82;101026.50;4992427;28;20069;-61
2023/02/16 07:29:47;;;;;;;25.92;19.80;;;;;;;11.25;46.59;101027.94;4992715;28;20372;-61
2023/02/16 07:32:14;;;;;;;24.40;17.83;;;;;;;10.97;47.49;101025.06;4992410;28;20077;-61
2023/02/16 07:34:42;;;;;;;24.30;16.27;;;;;;;10.92;46.42;101011.22;4992724;28;20050;-60
2023/02/16 07:37:09;;;;;;;20.00;15.13;;;;;;;10.77;46.69;101015.09;4992144;28;20146;-60
2023/02/16 07:39:36;;;;;;;23.17;17.13;;;;;;;10.67;46.10;101017.19;4992733;28;20437;-60
2023/02/16 07:42:04;;;;;;;22.55;16.33;;;;;;;10.67;45.99;101015.25;4995048;28;20050;-60
2023/02/16 07:44:31;;;;;;;21.42;16.45;;;;;;;10.59;47.11;101018.69;4994917;28;20057;-60
2023/02/16 07:47:00;;;;;;;21.67;15.18;;;;;;;10.56;46.26;101020.13;4996217;28;20392;-61
2023/02/16 07:49:27;;;;;;;21.23;16.38;;;;;;;10.57;46.18;101010.63;4995963;28;20061;-61
2023/02/16 07:51:54;;;;;;;25.80;17.90;;;;;;;10.46;46.74;101011.09;4996342;28;20065;-60
2023/02/16 07:54:21;;;;;;;23.08;16.55;;;;;;;10.46;48.20;101030.59;4981461;28;20491;-61
2023/02/16 07:56:48;;;;;;;26.10;18.30;;;;;;;10.52;47.29;101018.22;4994308;28;20057;-61
2023/02/16 07:59:16;;;;;;;25.02;17.38;;;;;;;10.45;47.13;101028.94;4996271;28;20356;-61
2023/02/16 08:01:43;;;;;;;21.60;15.05;;;;;;;10.47;47.86;101018.31;4995497;28;20415;-61
2023/02/16 08:04:12;;;;;;;24.30;17.45;;;;;;;10.33;48.12;101030.22;4995898;28;20061;-60
2023/02/16 08:06:39;;;;;;;29.00;20.40;;;;;;;10.37;46.58;101022.06;4995580;28;20054;-61
2023/02/16 08:09:06;;;;;;;28.13;18.23;;;;;;;10.48;46.66;101023.59;4994990;28;20054;-61
2023/02/16 08:11:34;;;;;;;22.98;16.17;;;;;;;10.51;47.22;101013.81;4995645;28;20050;-59
2023/02/16 08:14:01;;;;;;;23.60;16.33;;;;;;;10.56;46.78;101014.56;4995015;28;20065;-61
2023/02/16 08:16:29;;;;;;;23.92;16.73;;;;;;;10.66;47.08;101018.31;4995504;28;20070;-60
2023/02/16 08:18:58;;;;;;;26.15;18.95;;;;;;;10.73;46.62;101007.59;4995494;28;20072;-60
2023/02/16 08:21:29;;;;;;;22.83;15.43;;;;;;;10.82;46.26;101014.16;4995240;28;20054;-61
2023/02/16 08:23:58;;;;;;;20.30;14.57;;;;;;;10.86;46.46;101006.88;4993671;28;20061;-60
2023/02/16 08:26:28;;;;;;;22.77;15.95;;;;;;;10.74;46.27;100998.13;4995127;28;20065;-61
2023/02/16 08:28:57;;;;;;;;;;;;;;;10.80;46.71;100996.94;4995766;28;20065;-60
2023/02/16 08:31:27;;;;;;;21.77;15.50;;;;;;;10.79;47.08;101000.81;4994901;28;19945;-61
2023/02/16 08:33:55;;;;;;;20.88;14.68;;;;;;;10.95;46.32;100993.88;4995028;28;20483;-61
2023/02/16 08:36:25;;;;;;;21.67;14.73;;;;;;;11.16;46.38;100999.13;4994757;28;20065;-61
2023/02/16 08:38:54;;;;;;;22.23;15.02;;;;;;;11.43;45.03;101003.94;4992704;28;20061;-62
2023/02/16 08:41:23;;;;;;;19.17;14.97;;;;;;;11.51;44.69;101006.00;4995192;28;20061;-61
2023/02/16 08:43:51;;;;;;;19.67;14.00;;;;;;;11.56;44.35;101002.28;4995064;28;20058;-61
2023/02/16 08:46:18;;;;;;;22.17;15.23;;;;;;;11.67;44.02;101008.50;4994704;28;20442;-61
2023/02/16 08:48:46;;;;;;;20.33;13.60;;;;;;;11.81;43.97;101002.94;4994970;28;20061;-61
2023/02/16 08:51:14;;;;;;;19.05;13.82;;;;;;;11.78;43.13;100999.63;4993478;28;20047;-61
2023/02/16 08:53:42;;;;;;;19.15;14.13;;;;;;;11.62;43.09;101005.81;4992707;28;20050;-61
2023/02/16 08:56:11;;;;;;;21.40;14.45;;;;;;;11.76;43.42;100993.53;4994828;28;20066;-61
2023/02/16 08:58:38;;;;;;;21.00;13.75;;;;;;;11.75;43.73;100997.44;4994743;28;20081;-61
2023/02/16 09:01:07;;;;;;;19.70;13.23;;;;;;;11.85;43.05;100990.03;4994517;28;20513;-61
2023/02/16 09:03:34;;;;;;;19.15;14.32;;;;;;;11.83;43.35;100990.31;4994322;28;20046;-60
2023/02/16 09:06:04;;;;;;;20.75;14.85;;;;;;;11.74;43.42;101000.56;4994454;28;20065;-60
2023/02/16 09:08:32;;;;;;;20.73;14.13;;;;;;;11.72;43.49;101006.44;4992533;28;20050;-61
2023/02/16 09:11:01;;;;;;;21.50;15.15;;;;;;;11.58;44.26;101002.81;4992376;28;20490;-61
2023/02/16 09:13:30;;;;;;;20.08;14.50;;;;;;;11.55;44.32;101006.25;4994591;28;20403;-61
2023/02/16 09:16:02;;;;;;;19.48;14.90;;;;;;;11.64;44.12;101006.34;4994042;28;20057;-61
2023/02/16 09:18:29;;;;;;;22.50;14.70;;;;;;;11.67;43.50;101014.91;4994427;28;20054;-60
2023/02/16 09:20:57;;;;;;;22.13;14.85;;;;;;;11.60;44.39;101024.84;4994254;28;20510;-60
2023/02/16 09:23:24;;;;;;;18.35;13.75;;;;;;;11.71;43.73;101021.53;4992681;28;20426;-61
2023/02/16 09:25:51;;;;;;;19.20;14.82;;;;;;;12.06;43.35;101022.00;4993742;28;20430;-60
2023/02/16 09:28:19;;;;;;;19.45;14.75;;;;;;;12.34;42.92;101021.97;4994359;28;20050;-60
2023/02/16 09:30:48;;;;;;;19.98;14.45;;;;;;;12.49;42.54;101018.00;4993862;28;20407;-61
2023/02/16 09:33:15;;;;;;;19.83;14.90;;;;;;;12.63;42.58;101013.19;4994089;28;20173;-60
2023/02/16 09:35:42;;;;;;;19.42;14.95;;;;;;;13.05;41.82;101015.84;4994288;28;20054;-60
2023/02/16 09:38:09;;;;;;;20.00;14.48;;;;;;;13.07;41.07;101014.38;4983129;28;20050;-62
2023/02/16 09:40:37;;;;;;;19.20;15.65;;;;;;;13.61;40.22;101020.00;4988939;28;20051;-60
2023/02/16 09:43:08;;;;;;;19.75;13.48;;;;;;;14.68;39.34;101010.44;4993615;28;20050;-60
2023/02/16 09:45:41;;;;;;;19.90;14.55;;;;;;;15.32;37.56;101018.16;4994262;28;20063;-61
2023/02/16 09:48:22;;;;;;;19.88;15.05;;;;;;;15.74;36.27;101014.75;4993713;28;20050;-61
2023/02/16 09:50:53;;;;;;;18.77;14.35;;;;;;;16.69;34.91;101015.38;4993740;28;20054;-61
2023/02/16 09:53:36;;;;;;;21.02;15.57;;;;;;;19.38;31.56;101007.41;4992925;28;20065;-61
2023/02/16 09:56:13;;;;;;;17.23;13.13;;;;;;;21.04;28.49;101002.59;4992525;28;20065;-62
2023/02/16 09:58:46;;;;;;;19.83;14.85;;;;;;;22.83;26.21;101006.88;4993794;28;20054;-60
2023/02/16 10:01:26;;;;;;;21.27;15.05;;;;;;;24.48;24.41;101005.66;4993907;28;20046;-60
2023/02/16 10:04:06;;;;;;;18.58;14.80;;;;;;;25.89;22.16;100997.28;4993898;28;20054;-60
2023/02/16 10:06:50;;;;;;;15.45;13.48;;;;;;;23.74;23.56;101004.66;4994026;28;20058;-61
2023/02/16 10:09:19;;;;;;;19.05;14.20;;;;;;;21.08;26.54;101017.63;4992571;28;20138;-61
2023/02/16 10:11:53;;;;;;;19.40;14.93;;;;;;;18.84;30.09;101022.81;4993541;28;20058;-61
2023/02/16 10:14:32;;;;;;;18.83;15.15;;;;;;;17.61;31.92;101028.44;4993386;28;20057;-59
2023/02/16 10:17:08;;;;;;;18.75;15.18;;;;;;;17.00;33.27;101026.25;4993637;28;20061;-59
2023/02/16 10:19:41;;;;;;;18.88;14.88;;;;;;;16.43;33.90;101041.69;4993503;28;20058;-60
2023/02/16 10:22:14;;;;;;;17.65;13.98;;;;;;;15.74;35.85;101032.44;4991499;28;20049;-60
2023/02/16 10:24:50;;;;;;;17.15;13.38;;;;;;;15.37;36.13;101032.03;4982576;28;20077;-60
2023/02/16 10:27:32;;;;;;;17.70;14.15;;;;;;;15.26;36.29;101030.69;4990450;28;20062;-60
2023/02/16 10:29:59;;;;;;;18.02;13.77;;;;;;;15.06;37.32;101037.03;4992955;28;20070;-60
2023/02/16 10:32:31;;;;;;;18.73;15.07;;;;;;;14.85;38.24;101028.44;4992632;28;20054;-59
2023/02/16 10:35:12;;;;;;;17.38;13.13;;;;;;;14.70;38.45;101038.13;4993408;28;20061;-60
2023/02/16 10:37:55;;;;;;;18.63;14.65;;;;;;;13.70;40.53;101051.66;4991386;28;20131;-60
2023/02/16 10:40:33;;;;;;;17.58;14.23;;;;;;;13.72;40.60;101043.78;4993255;28;20384;-60
2023/02/16 10:43:06;;;;;;;18.58;13.75;;;;;;;13.75;40.27;101045.94;4994303;28;20057;-60
2023/02/16 10:45:43;;;;;;;20.33;14.65;;;;;;;13.79;40.79;101052.53;4993227;28;20050;-61
2023/02/16 10:48:10;;;;;;;18.90;14.00;;;;;;;13.69;41.54;101052.81;4993490;28;20050;-60
2023/02/16 10:50:42;;;;;;;17.42;13.85;;;;;;;13.63;41.41;101050.47;4992615;28;20074;-61
2023/02/16 10:53:15;;;;;;;17.63;14.23;;;;;;;13.66;41.17;101047.84;4990154;28;20057;-60
2023/02/16 10:55:42;;;;;;;21.35;14.57;;;;;;;13.68;41.91;101045.56;4992894;28;20050;-61
2023/02/16 10:58:20;;;;;;;16.70;13.43;;;;;;;13.70;42.19;101045.25;4993213;28;20384;-60
2023/02/16 11:00:54;;;;;;;18.20;14.35;;;;;;;13.43;42.49;101041.47;4992526;28;20062;-60
2023/02/16 11:03:24;;;;;;;18.55;14.00;;;;;;;13.35;42.78;101050.63;4992799;28;20061;-60
2023/02/16 11:05:54;;;;;;;20.77;14.57;;;;;;;13.30;42.65;101054.38;4992924;28;20058;-61
2023/02/16 11:08:23;;;;;;;19.27;14.10;;;;;;;13.27;43.35;101057.81;4990823;28;20050;-60
2023/02/16 11:10:52;;;;;;;18.55;14.18;;;;;;;13.28;43.45;101061.41;4992636;28;20053;-61
2023/02/16 11:13:27;;;;;;;;;;;;;;;13.30;43.06;101051.59;4993202;28;20057;-60
2023/02/16 11:15:58;;;;;;;20.08;14.32;;;;;;;13.26;43.41;101053.34;4994319;28;20417;-60
2023/02/16 11:18:37;;;;;;;19.23;14.05;;;;;;;13.13;44.23;101041.06;4983866;28;20365;-60
2023/02/16 11:21:08;;;;;;;19.95;14.50;;;;;;;13.06;44.62;101048.25;4996383;28;20054;-60
2023/02/16 11:23:40;;;;;;;20.13;14.02;;;;;;;13.18;44.82;101045.72;4995542;28;20054;-59
2023/02/16 11:26:22;;;;;;;19.77;14.65;;;;;;;13.10;45.37;101030.53;4995929;28;20054;-59
2023/02/16 11:28:51;;;;;;;20.17;15.25;;;;;;;13.23;44.99;101033.56;4997250;28;20058;-60
2023/02/16 11:31:24;;;;;;;18.88;14.23;;;;;;;13.40;45.26;101028.94;4996196;28;20073;-60
2023/02/16 11:33:57;;;;;;;18.55;15.18;;;;;;;13.55;45.15;101026.91;4996128;28;20142;-61
2023/02/16 11:36:33;;;;;;;20.38;14.85;;;;;;;13.77;44.90;101017.59;4996209;28;20065;-61
2023/02/16 11:39:05;;;;;;;18.77;15.27;;;;;;;13.92;44.91;101008.78;4995358;28;20065;-61
2023/02/16 11:41:35;;;;;;;19.83;15.63;;;;;;;13.76;44.56;101013.97;4996247;28;20388;-60
2023/02/16 11:44:03;;;;;;;19.80;15.18;;;;;;;13.95;44.80;101013.72;4996277;28;20057;-60
2023/02/16 11:46:40;;;;;;;20.83;15.63;;;;;;;14.64;44.17;101009.47;4995739;28;20058;-60
2023/02/16 11:49:36;;;;;;;17.42;13.80;;;;;;;15.40;42.31;101008.06;4996015;28;20059;-60
2023/02/16 11:52:25;;;;;;;20.80;15.32;;;;;;;17.15;39.32;101005.06;4993614;28;20057;-60
2023/02/16 11:54:56;;;;;;;23.50;14.45;;;;;;;18.70;35.89;101002.59;4995817;28;20054;-61
2023/02/16 11:57:27;;;;;;;19.48;14.32;;;;;;;19.34;34.80;100990.38;4996024;28;20059;-61
2023/02/16 11:59:55;;;;;;;17.48;14.32;;;;;;;19.63;34.80;100991.13;4995525;28;20061;-61
2023/02/16 12:02:45;;;;;;;16.85;14.48;;;;;;;19.32;34.65;100991.91;4995976;28;20061;-60
2023/02/16 12:05:26;;;;;;;17.58;15.20;;;;;;;19.01;34.66;100983.00;4989206;28;20122;-61
2023/02/16 12:08:11;;;;;;;18.13;15.27;;;;;;;18.96;35.66;100988.06;4994297;28;20498;-61
2023/02/16 12:10:48;;;;;;;18.27;14.38;;;;;;;18.73;35.95;100970.84;4995705;28;20058;-60
2023/02/16 12:13:22;;;;;;;17.00;15.20;;;;;;;18.19;36.74;100967.22;4995315;28;20057;-61
2023/02/16 12:16:00;;;;;;;18.83;15.05;;;;;;;17.48;37.64;100971.25;4997185;28;20419;-60